Time;durP1;ratioP1;P1;durP2;ratioP2;P2;SDS_P1;SDS_P2;PMS_P1;PMS_P2;Temp;Humidity;BMP_temperature;BMP_pressure;BME280_temperature;BME280_humidity;BME280_pressure;Samples;Min_cycle;Max_cycle;Signal;HPM_P1;HPM_P2
2023/05/11 00:01:07;;;;;;;3.65;1.30;;;;;;;10.06;100.00;98632.34;4982506;28;20030;-66
2023/05/11 00:03:34;;;;;;;8.38;1.50;;;;;;;10.15;100.00;98635.69;4973952;28;20050;-66
2023/05/11 00:05:59;;;;;;;3.00;0.98;;;;;;;10.11;100.00;98634.44;4952451;28;20462;-66
2023/05/11 00:08:25;;;;;;;3.35;1.20;;;;;;;10.10;100.00;98639.00;4974465;28;20065;-66
2023/05/11 00:10:51;;;;;;;2.05;1.10;;;;;;;10.12;100.00;98633.41;4989442;28;20019;-66
2023/05/11 00:13:17;;;;;;;1.80;1.20;;;;;;;10.09;100.00;98641.94;4987081;28;20027;-66
2023/05/11 00:15:43;;;;;;;2.20;1.10;;;;;;;10.09;100.00;98631.13;4939975;28;20062;-66
2023/05/11 00:18:09;;;;;;;2.90;1.05;;;;;;;10.04;100.00;98625.50;4978103;28;20050;-66
2023/05/11 00:20:34;;;;;;;3.65;1.27;;;;;;;9.96;100.00;98628.38;4959372;28;20019;-66
2023/05/11 00:23:00;;;;;;;2.30;1.00;;;;;;;9.93;100.00;98634.16;4975214;28;20203;-66
2023/05/11 00:25:26;;;;;;;2.17;1.08;;;;;;;9.92;100.00;98635.22;4975794;28;20030;-66
2023/05/11 00:27:51;;;;;;;1.60;1.00;;;;;;;9.90;100.00;98632.69;4958420;28;20038;-66
2023/05/11 00:30:17;;;;;;;3.92;1.10;;;;;;;9.88;100.00;98627.53;4955706;28;20034;-66
2023/05/11 00:32:43;;;;;;;2.53;1.50;;;;;;;9.89;100.00;98631.06;4976817;28;20041;-66
2023/05/11 00:35:12;;;;;;;7.25;1.67;;;;;;;9.96;100.00;98631.09;4964307;28;20390;-66
2023/05/11 00:37:38;;;;;;;3.95;1.25;;;;;;;9.96;100.00;98628.38;4953194;28;20497;-66
2023/05/11 00:40:04;;;;;;;1.83;1.20;;;;;;;9.97;100.00;98622.75;4955709;28;20031;-66
2023/05/11 00:42:29;;;;;;;4.20;1.30;;;;;;;10.00;100.00;98616.94;4965700;28;20117;-66
2023/05/11 00:44:57;;;;;;;2.30;1.35;;;;;;;10.01;100.00;98615.09;4956149;28;20155;-67
2023/05/11 00:47:22;;;;;;;5.10;2.08;;;;;;;10.02;100.00;98619.44;4983949;28;20069;-66
2023/05/11 00:49:49;;;;;;;7.38;2.80;;;;;;;9.98;100.00;98615.47;4970105;28;20058;-66
2023/05/11 00:52:15;;;;;;;13.20;2.90;;;;;;;9.97;100.00;98620.06;4983988;28;20023;-66
2023/05/11 00:54:41;;;;;;;4.30;1.65;;;;;;;9.95;100.00;98624.00;4968957;28;20251;-60
2023/05/11 00:57:07;;;;;;;3.50;1.40;;;;;;;9.92;100.00;98619.84;4979775;28;20355;-61
2023/05/11 00:59:32;;;;;;;2.83;1.40;;;;;;;9.93;100.00;98626.91;4958372;28;20117;-60
2023/05/11 01:01:58;;;;;;;4.65;1.33;;;;;;;9.80;100.00;98627.72;4962192;28;20470;-61
2023/05/11 01:04:24;;;;;;;4.43;1.38;;;;;;;9.85;100.00;98622.53;4949960;28;20031;-61
2023/05/11 01:07:08;;;;;;;4.80;1.40;;;;;;;9.82;100.00;98620.25;4959776;28;20117;-61
2023/05/11 01:09:58;;;;;;;1.88;1.13;;;;;;;9.78;100.00;98613.56;4971385;28;20054;-61
2023/05/11 01:12:51;;;;;;;1.63;1.40;;;;;;;9.75;100.00;98619.38;4971719;28;20573;-61
2023/05/11 01:15:43;;;;;;;1.88;1.30;;;;;;;9.77;100.00;98617.31;4963057;28;20066;-61
2023/05/11 01:18:26;;;;;;;2.45;1.23;;;;;;;9.77;100.00;98621.84;4957321;28;20061;-60
2023/05/11 01:20:56;;;;;;;2.10;1.38;;;;;;;9.74;100.00;98623.09;4984532;28;20031;-61
2023/05/11 01:24:03;;;;;;;2.78;1.50;;;;;;;9.75;100.00;98629.34;5028115;22;20451;-57
2023/05/11 01:26:28;;;;;;;3.05;1.17;;;;;;;9.75;100.00;98624.78;4993123;28;20053;-57
2023/05/11 01:29:26;;;;;;;3.50;1.20;;;;;;;9.70;100.00;98621.84;4983214;28;20389;-57
2023/05/11 01:31:54;;;;;;;1.80;1.10;;;;;;;9.62;100.00;98633.66;4995442;28;20033;-59
2023/05/11 01:34:27;;;;;;;11.68;1.65;;;;;;;9.57;100.00;98627.19;5003989;28;20473;-57
2023/05/11 01:37:15;;;;;;;2.47;1.25;;;;;;;9.51;100.00;98618.03;4993793;28;20029;-58
2023/05/11 01:39:57;;;;;;;2.30;1.20;;;;;;;9.48;100.00;98633.78;5003663;28;20026;-58
2023/05/11 01:42:29;;;;;;;6.28;1.20;;;;;;;9.50;100.00;98626.31;4998664;28;20037;-58
2023/05/11 01:44:56;;;;;;;2.13;0.98;;;;;;;9.51;100.00;98625.28;4994325;28;20026;-58
2023/05/11 01:47:23;;;;;;;5.97;0.90;;;;;;;9.49;100.00;98630.06;5011058;28;20026;-58
2023/05/11 01:49:51;;;;;;;1.80;1.15;;;;;;;9.47;100.00;98624.03;4999935;28;20040;-58
2023/05/11 01:52:19;;;;;;;2.40;0.90;;;;;;;9.43;100.00;98613.63;4993608;28;20021;-58
2023/05/11 01:54:47;;;;;;;1.60;1.10;;;;;;;9.42;100.00;98619.22;5001317;28;20037;-58
2023/05/11 01:57:15;;;;;;;3.03;1.00;;;;;;;9.41;100.00;98629.19;5003897;28;20069;-58
2023/05/11 01:59:41;;;;;;;6.90;0.90;;;;;;;9.37;100.00;98627.91;4995088;28;20029;-58
2023/05/11 02:02:08;;;;;;;4.10;1.20;;;;;;;9.34;100.00;98625.63;4991414;28;20458;-58
2023/05/11 02:04:36;;;;;;;1.67;0.98;;;;;;;9.32;100.00;98630.38;5001532;28;20485;-58
2023/05/11 02:07:03;;;;;;;3.33;1.10;;;;;;;9.31;100.00;98628.72;5004199;28;20032;-58
2023/05/11 02:09:31;;;;;;;4.18;1.40;;;;;;;9.29;100.00;98629.97;4996706;28;20046;-58
2023/05/11 02:11:59;;;;;;;6.32;1.50;;;;;;;9.29;100.00;98630.78;4984485;28;20022;-58
2023/05/11 02:14:28;;;;;;;3.17;1.20;;;;;;;9.30;100.00;98634.31;5008420;28;20689;-58
2023/05/11 02:16:56;;;;;;;3.42;1.42;;;;;;;9.28;100.00;98639.94;4992718;28;20084;-58
2023/05/11 02:19:21;;;;;;;5.25;1.10;;;;;;;9.31;100.00;98636.84;4997729;28;20068;-58
2023/05/11 02:21:49;;;;;;;6.32;1.30;;;;;;;9.32;100.00;98640.34;4988997;28;20061;-58
2023/05/11 02:24:17;;;;;;;3.08;1.40;;;;;;;9.29;100.00;98638.88;4998831;28;20076;-57
2023/05/11 02:26:42;;;;;;;2.25;1.25;;;;;;;9.27;100.00;98638.25;4993816;28;20461;-58
2023/05/11 02:29:07;;;;;;;1.90;1.02;;;;;;;9.27;100.00;98643.66;4991821;28;20032;-58
2023/05/11 02:31:39;;;;;;;2.20;1.17;;;;;;;9.30;100.00;98645.13;4996182;28;20117;-58
2023/05/11 02:34:19;;;;;;;5.15;1.23;;;;;;;9.35;100.00;98656.16;5000101;28;20437;-58
2023/05/11 02:36:48;;;;;;;2.95;1.20;;;;;;;9.33;100.00;98642.88;4987744;28;20488;-57
2023/05/11 02:39:20;;;;;;;3.58;1.25;;;;;;;9.35;100.00;98642.66;5002702;28;20033;-57
2023/05/11 02:41:48;;;;;;;3.97;1.30;;;;;;;9.30;100.00;98627.06;4988675;28;20030;-58
2023/05/11 02:44:17;;;;;;;4.93;1.13;;;;;;;9.31;100.00;98627.91;4992309;28;20029;-58
2023/05/11 02:46:46;;;;;;;2.17;0.90;;;;;;;9.35;100.00;98634.56;4987883;28;20050;-57
2023/05/11 02:49:14;;;;;;;3.85;1.15;;;;;;;9.38;100.00;98628.78;4999691;28;20393;-57
2023/05/11 02:51:43;;;;;;;2.78;1.17;;;;;;;9.39;100.00;98625.88;4999146;28;20112;-58
2023/05/11 02:54:11;;;;;;;5.20;1.15;;;;;;;9.43;100.00;98628.97;5009598;28;20037;-58
2023/05/11 02:56:37;;;;;;;3.47;1.35;;;;;;;9.42;100.00;98633.56;5004989;28;20040;-58
2023/05/11 02:59:03;;;;;;;4.07;1.38;;;;;;;9.43;100.00;98623.59;4996303;28;20080;-58
2023/05/11 03:01:29;;;;;;;2.60;1.38;;;;;;;9.44;100.00;98623.41;4991420;28;20029;-58
2023/05/11 03:03:55;;;;;;;5.80;1.30;;;;;;;9.44;100.00;98626.09;4997333;28;20037;-58
2023/05/11 03:06:20;;;;;;;7.38;1.20;;;;;;;9.46;100.00;98625.06;5008340;28;20508;-58
2023/05/11 03:08:47;;;;;;;3.80;1.20;;;;;;;9.39;100.00;98620.47;4997267;28;20038;-58
2023/05/11 03:11:16;;;;;;;4.80;1.08;;;;;;;9.39;100.00;98612.34;4986217;28;20026;-57
2023/05/11 03:13:43;;;;;;;4.28;1.15;;;;;;;9.41;100.00;98617.56;5004296;28;20022;-58
2023/05/11 03:16:11;;;;;;;4.38;1.00;;;;;;;9.39;100.00;98619.63;4995540;28;20603;-58
2023/05/11 03:18:37;;;;;;;7.47;1.40;;;;;;;9.42;100.00;98616.53;4989130;28;20156;-58
2023/05/11 03:21:04;;;;;;;5.07;1.17;;;;;;;9.42;100.00;98627.31;4994078;28;20465;-58
2023/05/11 03:23:31;;;;;;;6.50;1.13;;;;;;;9.40;100.00;98621.28;5002752;28;20178;-58
2023/05/11 03:25:58;;;;;;;2.53;1.20;;;;;;;9.36;100.00;98620.03;4999984;28;20026;-58
2023/05/11 03:28:25;;;;;;;4.28;1.27;;;;;;;9.34;100.00;98619.41;4999258;28;20053;-58
2023/05/11 03:30:52;;;;;;;1.23;1.05;;;;;;;9.33;100.00;98618.56;4992096;28;20022;-58
2023/05/11 03:33:19;;;;;;;1.70;1.20;;;;;;;9.32;100.00;98619.59;4998533;28;20045;-58
2023/05/11 03:35:48;;;;;;;2.50;1.40;;;;;;;9.30;100.00;98612.72;4988298;28;20022;-58
2023/05/11 03:38:15;;;;;;;4.22;1.10;;;;;;;9.31;100.00;98614.41;4997173;28;20485;-58
2023/05/11 03:40:41;;;;;;;3.53;1.23;;;;;;;9.33;100.00;98615.88;4997768;28;20042;-58
2023/05/11 03:43:11;;;;;;;2.97;1.30;;;;;;;9.38;100.00;98618.81;5003315;28;20021;-58
2023/05/11 03:45:38;;;;;;;3.42;1.70;;;;;;;9.42;100.00;98622.75;5007261;28;20363;-58
2023/05/11 03:48:05;;;;;;;3.15;1.20;;;;;;;9.42;100.00;98619.22;4996475;28;20038;-58
2023/05/11 03:50:32;;;;;;;2.17;1.25;;;;;;;9.41;100.00;98615.69;4992742;28;20050;-58
2023/05/11 03:52:59;;;;;;;3.17;1.00;;;;;;;9.40;100.00;98616.72;4997416;28;20022;-58
2023/05/11 03:55:25;;;;;;;2.65;1.15;;;;;;;9.40;100.00;98614.00;5004856;28;20034;-58
2023/05/11 03:57:51;;;;;;;1.63;1.00;;;;;;;9.42;100.00;98611.97;5003037;28;20065;-58
2023/05/11 04:00:17;;;;;;;3.22;1.33;;;;;;;9.31;100.00;98596.34;5007909;28;20063;-57
2023/05/11 04:02:43;;;;;;;2.80;1.38;;;;;;;9.48;100.00;98618.41;4995366;28;20034;-58
2023/05/11 04:05:10;;;;;;;2.00;1.20;;;;;;;9.52;100.00;98619.69;4996326;28;20072;-58
2023/05/11 04:07:37;;;;;;;1.85;1.55;;;;;;;9.54;100.00;98606.81;4994685;28;20034;-57
2023/05/11 04:10:05;;;;;;;1.35;1.15;;;;;;;9.56;100.00;98615.56;4994886;28;20660;-57
2023/05/11 04:12:31;;;;;;;3.95;1.20;;;;;;;9.54;100.00;98608.69;5000014;28;20049;-58
2023/05/11 04:14:57;;;;;;;3.83;1.10;;;;;;;9.53;100.00;98605.16;5008403;28;20026;-58
2023/05/11 04:17:22;;;;;;;2.00;1.20;;;;;;;9.53;100.00;98596.22;5016013;28;20029;-58
2023/05/11 04:19:48;;;;;;;6.10;1.33;;;;;;;9.58;100.00;98612.66;4991381;28;20030;-58
2023/05/11 04:22:13;;;;;;;2.80;1.35;;;;;;;9.61;100.00;98606.84;5000949;28;20339;-58
2023/05/11 04:24:39;;;;;;;4.05;1.42;;;;;;;9.65;100.00;98611.63;5007557;28;20121;-58
2023/05/11 04:27:04;;;;;;;1.55;1.10;;;;;;;9.72;100.00;98608.97;4997572;28;20112;-57
2023/05/11 04:29:30;;;;;;;2.58;1.48;;;;;;;9.80;100.00;98607.97;4990853;28;20473;-57
2023/05/11 04:31:55;;;;;;;2.10;1.40;;;;;;;9.83;100.00;98604.84;4999146;28;20026;-57
2023/05/11 04:34:20;;;;;;;6.05;1.33;;;;;;;9.86;100.00;98594.47;4999390;28;20080;-57
2023/05/11 04:36:50;;;;;;;3.17;1.77;;;;;;;9.93;100.00;98604.44;4991938;28;20393;-58
2023/05/11 04:39:16;;;;;;;6.82;1.42;;;;;;;9.99;100.00;98593.66;5009012;28;20025;-60
2023/05/11 04:41:44;;;;;;;3.70;1.20;;;;;;;10.08;100.00;98600.53;5006252;28;20478;-58
2023/05/11 04:44:10;;;;;;;2.95;1.20;;;;;;;10.14;100.00;98604.31;4992421;28;20038;-58
2023/05/11 04:46:39;;;;;;;3.05;1.70;;;;;;;10.18;100.00;98596.59;5006452;28;20034;-57
2023/05/11 04:49:05;;;;;;;4.82;1.40;;;;;;;10.22;100.00;98598.69;4995302;28;20033;-58
2023/05/11 04:51:30;;;;;;;2.38;1.35;;;;;;;10.23;100.00;98592.25;5012680;28;20084;-57
2023/05/11 04:53:55;;;;;;;3.80;1.23;;;;;;;10.20;100.00;98594.53;5012324;28;20113;-58
2023/05/11 04:56:21;;;;;;;2.80;1.27;;;;;;;10.20;100.00;98595.38;4990051;28;20045;-57
2023/05/11 04:58:47;;;;;;;5.22;1.50;;;;;;;10.20;100.00;98600.78;5003274;28;20033;-57
2023/05/11 05:01:12;;;;;;;7.10;1.50;;;;;;;10.20;100.00;98592.66;4984459;28;20026;-57
2023/05/11 05:03:37;;;;;;;4.57;1.30;;;;;;;10.24;100.00;98599.34;5003998;28;20038;-58
2023/05/11 05:06:03;;;;;;;2.30;1.40;;;;;;;10.32;100.00;98606.41;4995372;28;20121;-58
2023/05/11 05:08:28;;;;;;;2.45;1.63;;;;;;;10.37;100.00;98600.41;4998277;28;20580;-58
2023/05/11 05:10:54;;;;;;;6.70;1.77;;;;;;;10.41;100.00;98590.84;5003678;28;20026;-57
2023/05/11 05:13:19;;;;;;;3.88;1.20;;;;;;;10.41;100.00;98602.47;4988270;28;20034;-58
2023/05/11 05:15:45;;;;;;;2.83;1.30;;;;;;;10.48;100.00;98602.50;5004677;28;20480;-57
2023/05/11 05:18:10;;;;;;;4.20;1.40;;;;;;;10.55;100.00;98603.31;4991271;28;20044;-58
2023/05/11 05:20:36;;;;;;;3.47;1.50;;;;;;;10.60;100.00;98602.69;4987461;28;20462;-58
2023/05/11 05:23:01;;;;;;;3.85;1.35;;;;;;;10.62;100.00;98598.75;5007471;28;20040;-58
2023/05/11 05:25:27;;;;;;;1.17;1.05;;;;;;;10.62;100.00;98598.75;5013930;28;20029;-57
2023/05/11 05:27:52;;;;;;;2.53;1.52;;;;;;;10.73;100.00;98606.22;4992294;28;20505;-58
2023/05/11 05:30:18;;;;;;;3.00;1.58;;;;;;;10.79;100.00;98603.72;4993656;28;20030;-57
2023/05/11 05:32:43;;;;;;;2.50;1.40;;;;;;;10.86;100.00;98615.38;5001268;28;20028;-57
2023/05/11 05:35:09;;;;;;;2.60;1.30;;;;;;;10.91;100.00;98602.88;4989766;28;20033;-58
2023/05/11 05:37:36;;;;;;;9.38;1.60;;;;;;;10.99;100.00;98609.94;4997629;28;20017;-58
2023/05/11 05:40:02;;;;;;;5.93;1.63;;;;;;;11.07;100.00;98607.00;4990616;28;20449;-58
2023/05/11 05:42:27;;;;;;;8.23;1.35;;;;;;;11.11;100.00;98602.03;4988238;28;20030;-58
2023/05/11 05:44:52;;;;;;;4.88;1.52;;;;;;;11.15;100.00;98609.50;5008086;28;20478;-58
2023/05/11 05:47:18;;;;;;;3.80;1.30;;;;;;;11.19;100.00;98605.31;4986051;28;20029;-57
2023/05/11 05:49:43;;;;;;;2.33;1.40;;;;;;;11.28;100.00;98605.09;4995768;28;20072;-58
2023/05/11 05:52:09;;;;;;;3.67;1.48;;;;;;;11.31;100.00;98605.47;4996797;28;20033;-58
2023/05/11 05:54:34;;;;;;;3.05;1.63;;;;;;;11.45;100.00;98609.00;5012872;28;20580;-58
2023/05/11 05:57:00;;;;;;;1.52;1.27;;;;;;;11.51;100.00;98601.91;4991318;28;20033;-58
2023/05/11 05:59:26;;;;;;;1.67;1.08;;;;;;;11.53;100.00;98606.06;4990512;28;20033;-58
2023/05/11 06:01:51;;;;;;;3.35;1.42;;;;;;;11.57;100.00;98601.84;5005129;28;20060;-58
2023/05/11 06:04:17;;;;;;;1.55;1.08;;;;;;;11.56;100.00;98602.91;4989117;28;20019;-58
2023/05/11 06:06:42;;;;;;;1.95;1.00;;;;;;;11.68;100.00;98608.47;5002652;28;20543;-58
2023/05/11 06:09:08;;;;;;;4.05;1.30;;;;;;;11.87;100.00;98597.78;4994713;28;20022;-58
2023/05/11 06:11:33;;;;;;;3.45;1.10;;;;;;;12.00;100.00;98603.97;5007908;28;20073;-58
2023/05/11 06:13:59;;;;;;;2.45;1.05;;;;;;;12.02;100.00;98609.19;4997922;28;20040;-58
2023/05/11 06:16:25;;;;;;;3.08;1.25;;;;;;;12.13;100.00;98604.94;4984112;28;20025;-58
2023/05/11 06:18:51;;;;;;;4.95;1.17;;;;;;;12.25;100.00;98604.03;5006947;28;20109;-58
2023/05/11 06:21:16;;;;;;;6.05;1.23;;;;;;;12.49;100.00;98604.28;5004344;28;20034;-58
2023/05/11 06:23:41;;;;;;;3.63;1.10;;;;;;;12.34;100.00;98596.47;4995556;28;20068;-59
2023/05/11 06:26:07;;;;;;;3.65;1.23;;;;;;;12.33;100.00;98607.53;5003198;28;20189;-58
2023/05/11 06:28:32;;;;;;;1.40;0.90;;;;;;;12.25;100.00;98595.88;4983178;28;20466;-58
2023/05/11 06:30:58;;;;;;;2.03;1.00;;;;;;;12.27;100.00;98604.63;4989621;28;20478;-58
2023/05/11 06:33:24;;;;;;;3.15;1.02;;;;;;;12.42;100.00;98603.50;4990113;28;20121;-58
2023/05/11 06:35:49;;;;;;;2.15;1.02;;;;;;;12.72;100.00;98590.09;5001915;28;20088;-58
2023/05/11 06:38:15;;;;;;;2.22;0.95;;;;;;;12.82;100.00;98595.84;5007601;28;20033;-58
2023/05/11 06:40:40;;;;;;;2.75;0.90;;;;;;;13.08;100.00;98588.50;4988508;28;20037;-61
2023/05/11 06:43:05;;;;;;;1.33;0.82;;;;;;;13.20;100.00;98594.84;4994893;28;20501;-60
2023/05/11 06:45:31;;;;;;;3.35;1.13;;;;;;;13.28;100.00;98594.59;4995179;28;20030;-58
2023/05/11 06:47:56;;;;;;;2.80;0.93;;;;;;;13.42;100.00;98589.00;4999653;28;20029;-58
2023/05/11 06:50:22;;;;;;;4.43;0.93;;;;;;;13.40;100.00;98591.13;4998826;28;20030;-59
2023/05/11 06:52:47;;;;;;;4.13;1.10;;;;;;;13.37;100.00;98595.13;4989278;28;20045;-58
2023/05/11 06:55:13;;;;;;;2.47;1.15;;;;;;;13.45;100.00;98588.56;5007974;28;20389;-58
2023/05/11 06:57:38;;;;;;;1.70;0.82;;;;;;;13.21;100.00;98593.81;5012293;28;20477;-58
2023/05/11 07:00:05;;;;;;;1.90;1.10;;;;;;;12.97;100.00;98594.66;4994850;28;20025;-58
2023/05/11 07:02:30;;;;;;;5.57;1.33;;;;;;;13.10;100.00;98592.66;5003105;28;20033;-58
2023/05/11 07:04:57;;;;;;;0.85;0.65;;;;;;;13.17;100.00;98595.28;5003201;28;20030;-58
2023/05/11 07:07:22;;;;;;;1.95;0.95;;;;;;;12.84;100.00;98590.22;4991782;28;20033;-58
2023/05/11 07:09:48;;;;;;;1.52;0.80;;;;;;;12.78;100.00;98599.22;4985369;28;20458;-58
2023/05/11 07:12:14;;;;;;;2.13;1.17;;;;;;;12.89;100.00;98602.06;5008893;28;20026;-59
2023/05/11 07:14:39;;;;;;;1.50;0.80;;;;;;;13.00;100.00;98599.66;5001053;28;20101;-59
2023/05/11 07:17:05;;;;;;;2.13;0.93;;;;;;;12.80;100.00;98603.38;5004605;28;20023;-58
2023/05/11 07:19:30;;;;;;;2.45;0.90;;;;;;;12.98;100.00;98596.34;4999843;28;20029;-58
2023/05/11 07:21:56;;;;;;;1.65;1.10;;;;;;;13.24;100.00;98606.09;5009968;28;20473;-59
2023/05/11 07:24:22;;;;;;;1.58;0.95;;;;;;;13.18;100.00;98602.41;5001031;28;20056;-59
2023/05/11 07:26:48;;;;;;;5.70;1.25;;;;;;;13.30;100.00;98602.50;5009819;28;20125;-59
2023/05/11 07:29:14;;;;;;;3.55;1.10;;;;;;;13.31;100.00;98602.28;4995287;28;20021;-59
2023/05/11 07:31:40;;;;;;;2.15;1.00;;;;;;;13.55;100.00;98600.53;5002461;28;20144;-59
2023/05/11 07:34:05;;;;;;;1.63;0.95;;;;;;;13.48;100.00;98601.69;5001687;28;20497;-58
2023/05/11 07:36:31;;;;;;;3.92;0.98;;;;;;;13.64;100.00;98601.06;4993448;28;20026;-59
2023/05/11 07:38:58;;;;;;;4.93;0.95;;;;;;;13.54;100.00;98604.31;4991420;28;20441;-59
2023/05/11 07:41:25;;;;;;;3.15;1.00;;;;;;;13.71;100.00;98596.38;4998065;28;20025;-59
2023/05/11 07:43:51;;;;;;;3.10;0.95;;;;;;;14.00;100.00;98602.06;5004629;28;20434;-59
2023/05/11 07:46:17;;;;;;;2.08;0.77;;;;;;;14.05;100.00;98596.75;4992490;28;20355;-58
2023/05/11 07:48:42;;;;;;;2.22;0.95;;;;;;;14.06;100.00;98606.56;4990820;28;20037;-59
2023/05/11 07:51:07;;;;;;;2.80;0.88;;;;;;;14.19;100.00;98597.41;4997627;28;20026;-59
2023/05/11 07:53:33;;;;;;;3.97;1.20;;;;;;;14.33;100.00;98598.88;5006753;28;20473;-58
2023/05/11 07:55:59;;;;;;;3.30;1.05;;;;;;;14.06;100.00;98595.69;4991610;28;20079;-58
2023/05/11 07:58:25;;;;;;;1.77;1.00;;;;;;;13.80;100.00;98597.72;4998333;28;20437;-61
2023/05/11 08:00:50;;;;;;;2.85;1.02;;;;;;;14.14;100.00;98595.38;4990677;28;20033;-58
2023/05/11 08:03:16;;;;;;;3.97;1.08;;;;;;;14.13;100.00;98596.44;4994126;28;20041;-59
2023/05/11 08:05:41;;;;;;;3.20;0.85;;;;;;;14.45;100.00;98596.16;5008663;28;20080;-59
2023/05/11 08:08:07;;;;;;;4.50;1.23;;;;;;;14.60;100.00;98595.75;4997644;28;20385;-60
2023/05/11 08:10:32;;;;;;;1.58;0.98;;;;;;;14.62;100.00;98593.63;4998132;28;20045;-59
2023/05/11 08:12:58;;;;;;;1.83;1.05;;;;;;;14.88;100.00;98595.06;4993845;28;20478;-59
2023/05/11 08:15:23;;;;;;;2.30;1.23;;;;;;;14.61;100.00;98595.50;4990231;28;20085;-59
2023/05/11 08:17:49;;;;;;;1.13;0.80;;;;;;;14.59;100.00;98597.66;4995510;28;20021;-59
2023/05/11 08:20:15;;;;;;;1.20;0.95;;;;;;;14.78;100.00;98597.56;5021698;28;20057;-59
2023/05/11 08:22:40;;;;;;;1.23;0.90;;;;;;;15.25;100.00;98583.94;5012942;28;20053;-59
2023/05/11 08:25:06;;;;;;;3.40;1.15;;;;;;;15.69;100.00;98585.16;5006118;28;20034;-59
2023/05/11 08:27:31;;;;;;;1.27;0.75;;;;;;;15.68;100.00;98586.19;4991250;28;20053;-58
2023/05/11 08:29:57;;;;;;;1.67;0.90;;;;;;;16.03;100.00;98587.16;5002678;28;20116;-59
2023/05/11 08:32:22;;;;;;;1.27;1.00;;;;;;;15.60;100.00;98586.56;4988390;28;20038;-58
2023/05/11 08:34:48;;;;;;;1.70;0.95;;;;;;;15.31;100.00;98591.97;5005300;28;20029;-59
2023/05/11 08:37:13;;;;;;;1.20;0.70;;;;;;;15.47;100.00;98589.56;4988315;28;20457;-59
2023/05/11 08:39:39;;;;;;;1.92;0.85;;;;;;;15.39;100.00;98587.22;5010498;28;20030;-58
2023/05/11 08:42:05;;;;;;;1.90;0.90;;;;;;;15.12;100.00;98595.91;5006258;28;20024;-58
2023/05/11 08:44:36;;;;;;;1.70;0.85;;;;;;;15.28;100.00;98595.16;4987900;28;20038;-58
2023/05/11 08:47:04;;;;;;;2.90;1.00;;;;;;;15.47;100.00;98584.13;4983856;28;20355;-59
2023/05/11 08:49:30;;;;;;;3.97;1.00;;;;;;;15.84;100.00;98592.00;4997048;28;20472;-59
2023/05/11 08:51:57;;;;;;;1.55;1.05;;;;;;;15.61;100.00;98590.94;4997816;28;20033;-59
2023/05/11 08:54:22;;;;;;;2.20;0.98;;;;;;;15.86;100.00;98592.59;4997674;28;20029;-58
2023/05/11 08:56:50;;;;;;;1.10;0.90;;;;;;;15.63;100.00;98591.53;5006312;28;20040;-59
2023/05/11 08:59:17;;;;;;;4.90;1.10;;;;;;;14.93;100.00;98597.06;4995410;28;20034;-59
2023/05/11 09:01:44;;;;;;;2.70;0.80;;;;;;;14.91;100.00;98594.59;4985277;28;20026;-59
2023/05/11 09:04:10;;;;;;;1.63;1.02;;;;;;;15.51;100.00;98590.72;4994900;28;20145;-58
2023/05/11 09:06:39;;;;;;;1.60;0.85;;;;;;;15.51;100.00;98593.47;5007052;28;20032;-59
2023/05/11 09:09:04;;;;;;;2.70;0.80;;;;;;;15.54;100.00;98599.28;5009318;28;20025;-59
2023/05/11 09:11:30;;;;;;;1.77;0.80;;;;;;;15.96;100.00;98593.59;5020225;28;20891;-59
2023/05/11 09:13:56;;;;;;;1.60;0.90;;;;;;;15.81;100.00;98596.03;4991815;28;20045;-59
2023/05/11 09:16:21;;;;;;;1.15;0.73;;;;;;;15.93;100.00;98599.56;4989792;28;20036;-59
2023/05/11 09:18:52;;;;;;;1.45;0.90;;;;;;;15.90;100.00;98602.78;5002595;28;20033;-58
2023/05/11 09:21:18;;;;;;;2.22;0.80;;;;;;;16.23;100.00;98597.63;5000153;28;20097;-59
2023/05/11 09:23:44;;;;;;;2.65;1.00;;;;;;;16.57;100.00;98599.34;4996531;28;20026;-59
2023/05/11 09:26:18;;;;;;;1.20;0.90;;;;;;;16.36;100.00;98589.97;4995878;28;20092;-59
2023/05/11 09:28:57;;;;;;;7.28;1.17;;;;;;;16.39;100.00;98586.72;5004815;28;20033;-59
2023/05/11 09:31:46;;;;;;;3.03;1.08;;;;;;;16.10;100.00;98596.84;4982737;28;20096;-58
2023/05/11 09:34:22;;;;;;;3.85;0.95;;;;;;;16.23;100.00;98594.91;4999508;28;20069;-59
2023/05/11 09:36:52;;;;;;;1.77;0.85;;;;;;;16.29;100.00;98599.38;5017191;28;20116;-58
2023/05/11 09:39:30;;;;;;;1.15;0.68;;;;;;;15.92;100.00;98600.59;5013925;28;20378;-58
2023/05/11 09:42:12;;;;;;;1.70;1.08;;;;;;;15.16;100.00;98599.78;4991578;28;20107;-58
2023/05/11 09:44:37;;;;;;;1.80;0.95;;;;;;;14.95;100.00;98605.84;4992566;28;20116;-58
2023/05/11 09:47:21;;;;;;;4.70;1.08;;;;;;;15.39;100.00;98596.22;4991770;28;20172;-59
2023/05/11 09:49:47;;;;;;;2.65;1.10;;;;;;;15.74;100.00;98590.69;4993813;28;20120;-58
2023/05/11 09:52:14;;;;;;;2.03;1.00;;;;;;;16.02;100.00;98594.53;4997511;28;20104;-59
2023/05/11 09:54:48;;;;;;;1.15;0.80;;;;;;;16.19;100.00;98594.56;4981725;28;20514;-58
2023/05/11 09:57:27;;;;;;;2.83;0.82;;;;;;;16.33;100.00;98589.63;4999965;28;20037;-59
2023/05/11 09:59:54;;;;;;;1.45;1.02;;;;;;;16.04;100.00;98592.38;4997584;28;20029;-59
2023/05/11 10:02:28;;;;;;;2.75;1.23;;;;;;;15.17;100.00;98597.91;4995532;28;20034;-60
2023/05/11 10:04:55;;;;;;;1.45;1.20;;;;;;;15.22;100.00;98600.72;4990825;28;20049;-59
2023/05/11 10:07:29;;;;;;;2.83;1.20;;;;;;;14.74;100.00;98596.38;5014394;28;20037;-59
2023/05/11 10:09:56;;;;;;;1.77;1.05;;;;;;;14.20;100.00;98604.47;5000211;28;20076;-59
2023/05/11 10:12:24;;;;;;;2.55;1.75;;;;;;;14.06;100.00;98606.56;4999217;28;20564;-59
2023/05/11 10:14:51;;;;;;;2.33;1.58;;;;;;;13.95;100.00;98608.19;4990757;28;20084;-59
2023/05/11 10:17:18;;;;;;;2.28;1.17;;;;;;;13.55;100.00;98607.88;5001805;28;20072;-59
2023/05/11 10:19:44;;;;;;;6.75;1.50;;;;;;;13.52;100.00;98627.38;4994866;28;20029;-59
2023/05/11 10:22:10;;;;;;;2.78;1.58;;;;;;;13.38;100.00;98626.66;4997918;28;20117;-59
2023/05/11 10:24:35;;;;;;;6.25;1.52;;;;;;;13.74;100.00;98623.09;4992865;28;20447;-59
2023/05/11 10:27:02;;;;;;;3.10;1.70;;;;;;;13.64;100.00;98611.94;4994109;28;20038;-59
2023/05/11 10:29:29;;;;;;;1.35;1.15;;;;;;;13.88;100.00;98607.44;4994724;28;20021;-59
2023/05/11 10:31:56;;;;;;;2.22;1.50;;;;;;;14.17;100.00;98605.81;4990110;28;20523;-59
2023/05/11 10:34:23;;;;;;;3.08;1.40;;;;;;;14.58;100.00;98600.59;4990756;28;21266;-59
2023/05/11 10:36:51;;;;;;;2.05;1.50;;;;;;;14.97;100.00;98596.38;4989984;28;20474;-59
2023/05/11 10:39:17;;;;;;;1.58;1.30;;;;;;;15.16;100.00;98590.78;4995459;28;20040;-60
2023/05/11 10:42:04;;;;;;;3.33;1.55;;;;;;;15.56;100.00;98591.69;4989269;28;20049;-59
2023/05/11 10:44:46;;;;;;;2.30;1.50;;;;;;;16.09;100.00;98584.28;4988074;28;20117;-59
2023/05/11 10:47:33;;;;;;;2.92;1.40;;;;;;;16.34;100.00;98573.00;5006824;28;20045;-60
2023/05/11 10:50:13;;;;;;;1.55;1.00;;;;;;;16.61;100.00;98586.00;4996196;28;20041;-60
2023/05/11 10:53:10;;;;;;;1.27;1.10;;;;;;;16.89;100.00;98582.38;4994629;28;20025;-59
2023/05/11 10:56:05;;;;;;;1.50;1.10;;;;;;;17.07;100.00;98578.56;4987884;28;20036;-60
2023/05/11 10:59:11;;;;;;;2.85;1.38;;;;;;;17.19;100.00;98579.28;5003824;28;20033;-59
2023/05/11 11:01:38;;;;;;;1.63;0.98;;;;;;;17.45;100.00;98582.38;4998246;28;20038;-60
2023/05/11 11:04:06;;;;;;;5.00;1.10;;;;;;;17.57;100.00;98577.59;5012838;28;21204;-60
2023/05/11 11:06:33;;;;;;;0.70;0.68;;;;;;;17.73;100.00;98571.22;5005646;28;20053;-61
2023/05/11 11:09:04;;;;;;;3.28;1.08;;;;;;;17.94;100.00;98572.31;5002836;28;20026;-60
2023/05/11 11:11:37;;;;;;;1.67;0.95;;;;;;;18.04;100.00;98571.59;4987860;28;20085;-60
2023/05/11 11:14:04;;;;;;;5.50;1.30;;;;;;;17.83;100.00;98570.56;4991787;28;20529;-60
2023/05/11 11:16:31;;;;;;;2.22;0.88;;;;;;;18.23;100.00;98568.50;4992378;28;20033;-60
2023/05/11 11:19:31;;;;;;;1.85;0.90;;;;;;;18.18;100.00;98569.28;4998606;28;20022;-60
2023/05/11 11:21:57;;;;;;;1.65;0.80;;;;;;;18.42;100.00;98567.06;4997864;28;20129;-60
2023/05/11 11:24:52;;;;;;;4.22;0.80;;;;;;;18.08;100.00;98570.00;4991030;28;20525;-60
2023/05/11 11:27:17;;;;;;;1.40;1.08;;;;;;;18.23;100.00;98563.84;4975952;28;20453;-60
2023/05/11 11:30:21;;;;;;;1.00;0.80;;;;;;;18.43;100.00;98562.41;4993153;28;20105;-60
2023/05/11 11:32:48;;;;;;;0.93;0.80;;;;;;;18.16;100.00;98563.25;4993963;28;20091;-60
2023/05/11 11:35:39;;;;;;;1.20;0.90;;;;;;;18.40;100.00;98561.00;5007778;28;20486;-60